Time;durP1;ratioP1;P1;durP2;ratioP2;P2;SDS_P1;SDS_P2;PMS_P1;PMS_P2;Temp;Humidity;BMP_temperature;BMP_pressure;BME280_temperature;BME280_humidity;BME280_pressure;Samples;Min_cycle;Max_cycle;Signal;HPM_P1;HPM_P2
2023/03/20 00:00:28;;;;;;;28.50;13.70;;;;;;;8.27;53.09;98542.92;105039;1259;112207;-64
2023/03/20 00:02:55;;;;;;;21.40;11.30;;;;;;;8.25;53.36;98546.60;104848;1260;98957;-66
2023/03/20 00:05:24;;;;;;;19.40;9.20;;;;;;;8.24;53.57;98543.14;104683;1261;107625;-67
2023/03/20 00:07:52;;;;;;;19.30;10.20;;;;;;;8.23;53.33;98539.55;105230;1258;97928;-66
2023/03/20 00:10:20;;;;;;;18.80;9.80;;;;;;;8.21;53.45;98539.41;105247;1253;98460;-64
2023/03/20 00:12:49;;;;;;;23.60;11.00;;;;;;;8.22;53.43;98540.45;105169;1257;112318;-65
2023/03/20 00:15:21;;;;;;;19.70;10.00;;;;;;;8.22;53.33;98536.63;105253;1254;99223;-68
2023/03/20 00:17:48;;;;;;;17.00;8.20;;;;;;;8.20;53.17;98540.36;104943;1263;108241;-65
2023/03/20 00:20:16;;;;;;;22.70;10.40;;;;;;;8.20;53.54;98540.03;105166;1257;98558;-64
2023/03/20 00:22:43;;;;;;;24.90;12.10;;;;;;;8.20;53.20;98538.77;105017;1262;98310;-69
2023/03/20 00:25:16;;;;;;;14.40;8.40;;;;;;;8.20;53.31;98536.55;105038;1257;97925;-66
2023/03/20 00:27:44;;;;;;;21.10;11.00;;;;;;;8.20;53.10;98538.02;104989;1258;99635;-65
2023/03/20 00:30:30;;;;;;;17.60;9.20;;;;;;;8.19;53.24;98536.61;105224;1257;108653;-64
2023/03/20 00:32:57;;;;;;;18.20;9.40;;;;;;;8.20;53.42;98539.63;105129;1258;97988;-67
2023/03/20 00:35:28;;;;;;;20.90;9.80;;;;;;;8.20;53.20;98538.01;105133;1265;99200;-66
2023/03/20 00:37:56;;;;;;;16.70;8.90;;;;;;;8.21;53.47;98535.33;104932;1260;111215;-64
2023/03/20 00:40:30;;;;;;;15.20;7.80;;;;;;;8.23;53.36;98533.98;104935;1263;98246;-68
2023/03/20 00:43:03;;;;;;;16.20;8.20;;;;;;;8.23;53.13;98533.98;104750;1263;109017;-66
2023/03/20 00:45:34;;;;;;;17.50;8.80;;;;;;;8.23;53.40;98530.60;104879;1262;98008;-65
2023/03/20 00:48:02;;;;;;;16.50;8.80;;;;;;;8.24;53.19;98530.59;105214;1257;97976;-66
2023/03/20 00:50:30;;;;;;;25.60;11.80;;;;;;;8.24;53.30;98528.98;105124;1257;112339;-64
2023/03/20 00:52:58;;;;;;;22.70;10.10;;;;;;;8.24;53.30;98528.25;105138;1254;99149;-64
2023/03/20 00:55:28;;;;;;;20.40;10.20;;;;;;;8.23;53.25;98524.95;105155;1267;108341;-66
2023/03/20 00:57:59;;;;;;;18.70;9.90;;;;;;;8.23;53.30;98520.01;104973;1258;97996;-67
2023/03/20 01:00:42;;;;;;;20.00;10.00;;;;;;;8.23;53.24;98519.52;104915;1253;97931;-66
2023/03/20 01:03:13;;;;;;;21.80;9.50;;;;;;;8.22;53.64;98517.63;104842;1263;111275;-65
2023/03/20 01:05:41;;;;;;;14.90;8.40;;;;;;;8.22;53.23;98514.51;105032;1255;99212;-63
2023/03/20 01:08:19;;;;;;;13.70;7.60;;;;;;;8.23;53.27;98517.17;105142;1267;98009;-70
2023/03/20 01:10:52;;;;;;;18.40;9.10;;;;;;;8.22;53.63;98513.73;105119;1257;97989;-62
2023/03/20 01:13:25;;;;;;;20.20;9.90;;;;;;;8.22;53.45;98516.85;105108;1258;98109;-63
2023/03/20 01:15:54;;;;;;;19.40;7.60;;;;;;;8.23;53.33;98519.83;105253;1254;111764;-62
2023/03/20 01:18:23;;;;;;;17.00;9.50;;;;;;;8.24;53.17;98520.58;105043;1257;99125;-62
2023/03/20 01:20:53;;;;;;;18.60;9.70;;;;;;;8.24;53.27;98520.86;105175;1267;108637;-63
2023/03/20 01:23:25;;;;;;;15.80;9.10;;;;;;;8.24;53.08;98517.58;104944;1253;97920;-65
2023/03/20 01:25:53;;;;;;;19.80;9.80;;;;;;;8.24;53.11;98517.10;105121;1257;99123;-64
2023/03/20 01:28:23;;;;;;;18.30;9.60;;;;;;;8.24;53.57;98515.51;104997;1267;112149;-64
2023/03/20 01:30:50;;;;;;;21.70;10.60;;;;;;;8.23;53.16;98518.80;105258;1258;99149;-65
2023/03/20 01:33:20;;;;;;;23.80;10.10;;;;;;;8.24;53.10;98518.18;105172;1260;107641;-64
2023/03/20 01:35:49;;;;;;;29.90;13.20;;;;;;;8.23;53.29;98520.44;105249;1260;97893;-64
2023/03/20 01:38:16;;;;;;;30.90;13.80;;;;;;;8.23;53.47;98529.98;105278;1259;97934;-62
2023/03/20 01:40:58;;;;;;;28.80;13.70;;;;;;;8.22;53.43;98529.58;105199;1258;98001;-63
2023/03/20 01:43:27;;;;;;;21.10;10.70;;;;;;;8.20;53.53;98531.95;105247;1253;99198;-64
2023/03/20 01:46:05;;;;;;;24.70;12.10;;;;;;;8.20;53.57;98527.60;105219;1257;108306;-64
2023/03/20 01:48:56;;;;;;;27.40;12.80;;;;;;;8.19;53.43;98528.02;104865;1261;97846;-64
2023/03/20 01:51:31;;;;;;;27.00;11.80;;;;;;;8.18;53.48;98531.66;105128;1253;99183;-71
2023/03/20 01:53:58;;;;;;;17.00;9.20;;;;;;;8.19;53.38;98528.88;105144;1254;112152;-68
2023/03/20 01:56:31;;;;;;;14.00;7.90;;;;;;;8.20;53.46;98522.69;105266;1258;98520;-63
2023/03/20 01:59:04;;;;;;;14.50;8.30;;;;;;;8.18;53.63;98520.41;105153;1256;108869;-66
2023/03/20 02:01:34;;;;;;;15.20;8.40;;;;;;;8.19;53.41;98524.62;104915;1268;98094;-67
2023/03/20 02:04:02;;;;;;;13.40;7.70;;;;;;;8.19;53.50;98524.55;105015;1260;98090;-64
2023/03/20 02:06:30;;;;;;;13.70;8.60;;;;;;;8.21;53.34;98524.13;104913;1261;109412;-63
2023/03/20 02:08:57;;;;;;;19.90;8.00;;;;;;;8.22;53.55;98523.69;105052;1258;97905;-63
2023/03/20 02:11:25;;;;;;;13.90;6.80;;;;;;;8.22;53.31;98522.59;105206;1260;98037;-64
2023/03/20 02:13:55;;;;;;;12.70;7.60;;;;;;;8.22;53.01;98519.38;105181;1257;97958;-63
2023/03/20 02:16:22;;;;;;;20.90;9.70;;;;;;;8.23;53.36;98520.45;105064;1254;99321;-63
2023/03/20 02:18:52;;;;;;;25.40;11.30;;;;;;;8.22;53.32;98523.71;105138;1257;97940;-64
2023/03/20 02:21:25;;;;;;;21.00;10.30;;;;;;;8.21;53.36;98527.17;105224;1254;99577;-66
2023/03/20 02:24:01;;;;;;;20.20;9.10;;;;;;;8.20;53.38;98528.58;104910;1274;107315;-63
2023/03/20 02:26:46;;;;;;;32.50;12.40;;;;;;;8.19;53.63;98531.00;105066;1269;97852;-63
2023/03/20 02:29:30;;;;;;;29.10;12.80;;;;;;;8.15;54.15;98532.59;104956;1260;99460;-63
2023/03/20 02:32:20;;;;;;;35.20;15.10;;;;;;;8.11;54.24;98534.90;105171;1253;112195;-63
2023/03/20 02:35:12;;;;;;;23.90;12.10;;;;;;;8.07;54.70;98529.08;105248;1257;98115;-63
2023/03/20 02:37:58;;;;;;;39.80;16.70;;;;;;;8.02;54.10;98532.16;104918;1260;108618;-63
2023/03/20 02:40:44;;;;;;;17.40;9.20;;;;;;;7.97;54.89;98533.66;105102;1257;98017;-63
2023/03/20 02:43:32;;;;;;;16.80;8.60;;;;;;;7.94;54.45;98538.36;105002;1257;97848;-63
2023/03/20 02:46:03;;;;;;;17.00;9.30;;;;;;;7.94;55.09;98537.65;105123;1257;110760;-65
2023/03/20 02:48:35;;;;;;;17.90;10.40;;;;;;;7.93;54.92;98538.33;105073;1257;99351;-65
2023/03/20 02:51:29;;;;;;;18.00;9.70;;;;;;;7.88;55.23;98534.91;105015;1260;108379;-66
2023/03/20 02:54:17;;;;;;;16.50;9.70;;;;;;;7.84;55.33;98532.09;105180;1253;99095;-64
2023/03/20 02:57:04;;;;;;;20.60;11.70;;;;;;;7.80;55.33;98534.92;105189;1254;99104;-68
2023/03/20 02:59:49;;;;;;;20.20;12.00;;;;;;;7.76;55.41;98534.13;104746;1261;111140;-65
2023/03/20 03:02:52;;;;;;;16.60;11.00;;;;;;;7.75;55.66;98535.17;104925;1261;98208;-64
2023/03/20 03:05:59;;;;;;;20.30;11.00;;;;;;;7.71;55.86;98531.55;104863;1262;107466;-64
2023/03/20 03:08:33;;;;;;;20.70;11.70;;;;;;;7.66;56.03;98528.94;104578;1273;97926;-63
2023/03/20 03:11:05;;;;;;;29.60;15.10;;;;;;;7.64;56.22;98525.16;104520;1264;98102;-64
2023/03/20 03:13:40;;;;;;;29.00;13.30;;;;;;;7.62;56.07;98529.44;104601;1261;111276;-64
2023/03/20 03:16:15;;;;;;;24.40;11.40;;;;;;;7.59;56.50;98531.84;104558;1274;99004;-64
2023/03/20 03:18:45;;;;;;;24.70;12.20;;;;;;;7.53;56.70;98533.17;104509;1265;107446;-62
2023/03/20 03:21:16;;;;;;;24.80;12.40;;;;;;;7.49;56.44;98536.51;104605;1264;98034;-65
2023/03/20 03:23:48;;;;;;;25.30;16.10;;;;;;;7.45;56.36;98534.17;104552;1264;97969;-62
2023/03/20 03:26:31;;;;;;;26.30;15.30;;;;;;;7.42;56.45;98529.40;104355;1278;110891;-62
2023/03/20 03:29:16;;;;;;;25.70;15.10;;;;;;;7.39;56.19;98530.33;104453;1264;99409;-63
2023/03/20 03:31:44;;;;;;;18.60;11.60;;;;;;;7.31;57.06;98533.66;104492;1264;108673;-63
2023/03/20 03:34:15;;;;;;;18.40;11.40;;;;;;;7.22;57.31;98537.13;104390;1267;98115;-63
2023/03/20 03:37:06;;;;;;;19.00;11.40;;;;;;;7.17;57.50;98538.77;104338;1268;98112;-62
2023/03/20 03:39:53;;;;;;;21.20;10.80;;;;;;;7.10;57.33;98536.24;104600;1265;112335;-63
2023/03/20 03:42:32;;;;;;;22.20;12.10;;;;;;;7.08;57.42;98533.16;104452;1260;99215;-63
2023/03/20 03:45:08;;;;;;;21.50;12.80;;;;;;;7.08;57.50;98534.64;104730;1273;108546;-63
2023/03/20 03:48:05;;;;;;;40.50;19.40;;;;;;;7.01;57.87;98537.66;104727;1269;98021;-62
2023/03/20 03:50:47;;;;;;;25.60;13.20;;;;;;;6.94;57.75;98531.83;105127;1257;97897;-63
2023/03/20 03:53:21;;;;;;;37.20;17.30;;;;;;;6.88;57.99;98526.95;105210;1258;112266;-63
2023/03/20 03:55:56;;;;;;;28.30;13.90;;;;;;;6.84;58.03;98530.86;105196;1257;99393;-62
2023/03/20 03:58:32;;;;;;;23.80;12.90;;;;;;;6.82;57.78;98532.14;105086;1257;108747;-62
2023/03/20 04:01:02;;;;;;;15.90;9.50;;;;;;;6.80;57.99;98530.42;105041;1259;98171;-62
2023/03/20 04:03:34;;;;;;;31.30;14.80;;;;;;;6.76;57.66;98530.83;105193;1257;97954;-62
2023/03/20 04:06:03;;;;;;;25.10;13.00;;;;;;;6.73;57.91;98532.09;105019;1253;112845;-62
2023/03/20 04:08:30;;;;;;;21.20;12.10;;;;;;;6.70;57.92;98538.71;105122;1257;99121;-63
2023/03/20 04:10:57;;;;;;;23.30;12.10;;;;;;;6.65;58.13;98536.16;105081;1258;97968;-67
2023/03/20 04:13:24;;;;;;;25.50;12.10;;;;;;;6.62;58.10;98536.69;105200;1259;98016;-62
2023/03/20 04:15:52;;;;;;;28.90;13.00;;;;;;;6.60;57.92;98540.96;105186;1272;99210;-62
2023/03/20 04:18:19;;;;;;;32.10;14.80;;;;;;;6.57;58.14;98538.87;105243;1253;97909;-63
2023/03/20 04:20:46;;;;;;;31.10;14.50;;;;;;;6.58;58.28;98535.81;105143;1267;97932;-62
2023/03/20 04:23:15;;;;;;;39.20;17.00;;;;;;;6.58;58.14;98537.39;105209;1256;99228;-63
2023/03/20 04:25:57;;;;;;;77.60;27.50;;;;;;;6.59;58.11;98537.80;105194;1258;99209;-63
2023/03/20 04:28:32;;;;;;;42.80;17.20;;;;;;;6.60;58.14;98538.08;105220;1257;97887;-63
2023/03/20 04:31:06;;;;;;;53.50;20.30;;;;;;;6.60;58.16;98542.31;105009;1272;111257;-66
2023/03/20 04:33:41;;;;;;;58.30;21.30;;;;;;;6.59;58.28;98542.00;105193;1254;99206;-62
2023/03/20 04:36:17;;;;;;;41.50;17.20;;;;;;;6.59;58.25;98540.53;104788;1262;108310;-62
2023/03/20 04:38:49;;;;;;;42.00;15.70;;;;;;;6.58;58.31;98542.66;104975;1262;98271;-64
2023/03/20 04:41:24;;;;;;;39.00;15.80;;;;;;;6.59;58.48;98546.40;105137;1257;97941;-63
2023/03/20 04:43:52;;;;;;;39.80;16.20;;;;;;;6.56;59.00;98551.89;105081;1259;112126;-63
2023/03/20 04:46:22;;;;;;;59.40;23.20;;;;;;;6.54;58.72;98547.17;105117;1256;99207;-65
2023/03/20 04:48:58;;;;;;;70.50;25.20;;;;;;;6.57;58.77;98548.77;105194;1253;109262;-64
2023/03/20 04:51:30;;;;;;;33.20;15.70;;;;;;;6.59;58.94;98547.67;102898;1257;3046640;-64
2023/03/20 04:54:02;;;;;;;52.40;21.60;;;;;;;6.60;58.81;98548.58;105017;1254;97928;-63
2023/03/20 04:56:29;;;;;;;70.10;25.30;;;;;;;6.59;58.59;98547.98;105158;1258;99124;-67
2023/03/20 04:58:56;;;;;;;55.70;23.30;;;;;;;6.58;59.05;98546.59;105196;1258;98034;-66
2023/03/20 05:01:23;;;;;;;56.20;20.60;;;;;;;6.56;59.57;98553.64;105134;1258;97956;-67
2023/03/20 05:03:51;;;;;;;45.10;17.60;;;;;;;6.53;59.19;98555.13;105214;1257;97955;-65
2023/03/20 05:06:18;;;;;;;50.00;21.00;;;;;;;6.53;59.08;98555.67;105226;1271;99234;-67
2023/03/20 05:08:45;;;;;;;88.20;30.00;;;;;;;6.56;59.24;98549.83;105105;1269;97925;-65
2023/03/20 05:11:11;;;;;;;56.10;21.50;;;;;;;6.58;59.32;98554.77;105149;1258;98386;-63
2023/03/20 05:13:38;;;;;;;72.70;26.90;;;;;;;6.59;59.31;98550.94;105151;1256;97925;-66
2023/03/20 05:16:06;;;;;;;81.00;30.20;;;;;;;6.59;59.27;98554.41;105271;1253;97892;-63
2023/03/20 05:18:33;;;;;;;53.60;22.90;;;;;;;6.61;59.69;98554.28;104933;1261;110266;-63
2023/03/20 05:21:01;;;;;;;34.10;16.60;;;;;;;6.62;59.66;98553.02;105039;1258;97947;-66
2023/03/20 05:23:29;;;;;;;52.20;20.80;;;;;;;6.63;59.47;98548.44;105075;1267;108478;-63
2023/03/20 05:25:56;;;;;;;53.40;21.50;;;;;;;6.66;59.81;98549.00;104779;1261;99423;-64
2023/03/20 05:28:23;;;;;;;66.70;25.00;;;;;;;6.66;60.07;98558.42;105003;1257;97913;-70
2023/03/20 05:30:50;;;;;;;57.70;24.00;;;;;;;6.66;60.27;98560.22;105045;1269;97989;-65
2023/03/20 05:33:17;;;;;;;55.30;23.20;;;;;;;6.67;60.21;98560.49;105163;1258;97954;-66
2023/03/20 05:35:45;;;;;;;67.50;25.00;;;;;;;6.69;60.74;98553.92;105235;1257;97931;-67
2023/03/20 05:38:12;;;;;;;96.50;31.90;;;;;;;6.71;60.33;98555.14;105172;1256;97969;-64
2023/03/20 05:40:40;;;;;;;169.40;51.60;;;;;;;6.75;60.73;98558.36;105194;1253;98334;-64
2023/03/20 05:43:08;;;;;;;80.60;30.10;;;;;;;6.78;60.31;98561.93;105096;1255;98015;-63
2023/03/20 05:45:35;;;;;;;43.50;18.20;;;;;;;6.82;60.25;98563.23;105160;1259;98038;-64
2023/03/20 05:48:03;;;;;;;57.10;22.10;;;;;;;6.86;60.49;98560.32;105226;1257;97892;-64
2023/03/20 05:50:30;;;;;;;41.10;18.40;;;;;;;6.91;60.49;98556.55;105109;1268;99206;-63
2023/03/20 05:52:57;;;;;;;87.70;32.30;;;;;;;6.97;60.22;98561.53;105233;1256;97907;-63
2023/03/20 05:55:24;;;;;;;95.20;34.20;;;;;;;7.04;61.00;98565.61;105205;1259;98011;-63
2023/03/20 05:57:51;;;;;;;132.40;37.70;;;;;;;7.08;60.81;98566.52;105065;1258;98051;-64
2023/03/20 06:00:19;;;;;;;102.30;34.70;;;;;;;7.13;60.73;98566.73;105175;1257;97997;-64
2023/03/20 06:02:46;;;;;;;74.10;28.50;;;;;;;7.17;60.20;98565.58;105066;1257;98012;-62
2023/03/20 06:05:13;;;;;;;83.40;31.60;;;;;;;7.21;60.92;98571.04;105136;1257;97983;-63
2023/03/20 06:07:40;;;;;;;57.80;25.80;;;;;;;7.25;61.14;98573.38;105217;1257;98028;-62
2023/03/20 06:10:08;;;;;;;46.10;21.50;;;;;;;7.28;61.03;98575.27;105190;1259;97893;-64
2023/03/20 06:12:35;;;;;;;51.60;23.70;;;;;;;7.30;60.85;98580.45;105007;1257;97999;-64
2023/03/20 06:15:04;;;;;;;47.50;25.00;;;;;;;7.32;61.68;98581.09;104979;1259;99015;-63
2023/03/20 06:17:31;;;;;;;62.20;28.70;;;;;;;7.34;62.11;98590.11;105076;1257;99299;-66
2023/03/20 06:19:58;;;;;;;67.90;31.10;;;;;;;7.37;61.72;98598.95;105049;1275;98594;-63
2023/03/20 06:22:25;;;;;;;50.20;25.40;;;;;;;7.41;61.59;98602.61;105175;1257;98070;-63
2023/03/20 06:24:53;;;;;;;76.30;34.00;;;;;;;7.46;61.38;98606.96;105158;1258;97941;-63
2023/03/20 06:27:22;;;;;;;54.60;28.00;;;;;;;7.53;61.33;98613.63;105135;1257;99308;-63
2023/03/20 06:29:50;;;;;;;67.40;31.30;;;;;;;7.61;61.66;98610.84;105112;1258;97890;-63
2023/03/20 06:32:17;;;;;;;53.60;26.80;;;;;;;7.69;62.26;98613.18;105119;1253;97939;-63
2023/03/20 06:34:44;;;;;;;35.30;16.00;;;;;;;7.73;62.80;98614.25;105107;1276;97927;-62
2023/03/20 06:37:11;;;;;;;32.90;16.30;;;;;;;7.74;62.73;98619.04;105122;1266;97971;-63
2023/03/20 06:39:38;;;;;;;27.10;14.60;;;;;;;7.76;63.05;98619.23;105105;1258;98607;-63
2023/03/20 06:42:05;;;;;;;33.50;18.00;;;;;;;7.75;62.31;98617.28;105075;1257;99238;-62
2023/03/20 06:44:32;;;;;;;32.10;16.10;;;;;;;7.76;62.10;98617.81;105290;1253;97956;-65
2023/03/20 06:47:00;;;;;;;35.30;18.00;;;;;;;7.76;62.14;98619.66;105050;1260;97910;-62
2023/03/20 06:49:27;;;;;;;35.00;18.80;;;;;;;7.79;61.92;98619.57;105072;1268;98002;-68
2023/03/20 06:51:54;;;;;;;36.40;17.90;;;;;;;7.82;62.14;98623.73;104996;1259;99122;-67
2023/03/20 06:54:22;;;;;;;30.30;15.70;;;;;;;7.84;62.37;98628.23;105245;1253;99112;-64
2023/03/20 06:56:49;;;;;;;34.80;16.30;;;;;;;7.86;62.48;98629.45;105207;1253;97919;-65
2023/03/20 06:59:16;;;;;;;39.60;19.80;;;;;;;7.89;62.73;98629.84;105149;1259;97918;-64
2023/03/20 07:01:43;;;;;;;38.60;20.10;;;;;;;7.94;62.94;98631.79;105226;1257;97980;-63
2023/03/20 07:04:11;;;;;;;35.50;19.40;;;;;;;7.97;63.35;98626.61;105115;1259;98595;-66
2023/03/20 07:06:38;;;;;;;42.40;21.20;;;;;;;8.05;63.19;98631.39;105257;1261;98260;-64
2023/03/20 07:09:06;;;;;;;44.10;21.60;;;;;;;8.12;63.46;98634.63;105023;1273;98661;-65
2023/03/20 07:11:34;;;;;;;43.50;22.40;;;;;;;8.18;63.98;98632.07;104903;1254;107568;-64
2023/03/20 07:14:01;;;;;;;41.80;21.30;;;;;;;8.23;64.06;98633.73;105062;1253;98004;-66
2023/03/20 07:16:28;;;;;;;77.80;29.90;;;;;;;8.27;63.96;98635.90;105112;1272;99197;-64
2023/03/20 07:18:55;;;;;;;65.70;26.60;;;;;;;8.32;63.85;98636.46;105092;1267;97997;-65
2023/03/20 07:21:23;;;;;;;62.20;27.80;;;;;;;8.41;63.64;98640.24;105188;1257;99238;-64
2023/03/20 07:23:50;;;;;;;63.50;26.30;;;;;;;8.52;63.57;98637.52;105137;1257;97938;-63
2023/03/20 07:26:17;;;;;;;63.70;28.00;;;;;;;8.60;63.96;98638.70;105158;1257;97888;-66
2023/03/20 07:28:44;;;;;;;49.00;24.00;;;;;;;8.71;64.17;98638.08;105184;1259;99209;-63
2023/03/20 07:31:24;;;;;;;54.60;23.50;;;;;;;8.82;63.94;98634.80;104989;1254;97907;-62
2023/03/20 07:33:51;;;;;;;32.10;17.10;;;;;;;8.95;63.18;98635.33;105053;1260;97994;-64
2023/03/20 07:36:18;;;;;;;36.60;19.20;;;;;;;9.02;63.33;98636.77;105094;1258;97972;-67
2023/03/20 07:38:46;;;;;;;29.30;17.50;;;;;;;9.09;63.20;98640.45;105012;1253;97926;-63
2023/03/20 07:41:13;;;;;;;40.70;20.50;;;;;;;9.16;63.63;98639.73;105256;1257;97920;-67
2023/03/20 07:43:40;;;;;;;58.20;26.30;;;;;;;9.23;63.36;98642.80;105134;1257;99238;-62
2023/03/20 07:46:10;;;;;;;41.00;20.40;;;;;;;9.29;64.01;98645.63;105251;1258;98186;-62
2023/03/20 07:48:37;;;;;;;53.60;22.80;;;;;;;9.33;63.51;98648.34;105160;1259;99263;-62
2023/03/20 07:51:05;;;;;;;44.30;21.90;;;;;;;9.38;63.54;98650.15;105004;1274;97958;-62
2023/03/20 07:53:32;;;;;;;39.60;19.90;;;;;;;9.43;63.61;98645.66;105179;1258;97914;-63
2023/03/20 07:56:00;;;;;;;40.50;19.90;;;;;;;9.44;63.32;98646.58;105157;1258;97915;-64
2023/03/20 07:58:27;;;;;;;31.30;15.40;;;;;;;9.43;62.97;98646.98;105142;1256;98051;-63
2023/03/20 08:00:57;;;;;;;30.90;16.50;;;;;;;9.38;62.71;98646.64;105174;1253;97901;-64
2023/03/20 08:03:24;;;;;;;32.80;16.40;;;;;;;9.30;63.07;98645.67;105186;1268;97907;-64
2023/03/20 08:05:52;;;;;;;37.50;19.40;;;;;;;9.25;63.69;98646.05;105176;1253;98130;-62
2023/03/20 08:08:19;;;;;;;39.40;21.00;;;;;;;9.25;65.17;98645.87;104889;1254;111224;-66
2023/03/20 08:10:47;;;;;;;42.60;21.80;;;;;;;9.17;66.18;98646.42;105164;1258;98000;-74
2023/03/20 08:13:15;;;;;;;38.40;21.70;;;;;;;9.09;67.71;98650.34;104928;1259;97958;-73
2023/03/20 08:15:42;;;;;;;43.50;21.10;;;;;;;9.01;68.64;98642.91;104963;1268;97958;-72
2023/03/20 08:18:09;;;;;;;34.90;18.90;;;;;;;8.93;68.84;98635.73;105132;1259;98807;-73
2023/03/20 08:20:35;;;;;;;39.80;21.10;;;;;;;8.87;68.88;98640.07;105191;1274;98328;-72
2023/03/20 08:23:02;;;;;;;40.30;22.30;;;;;;;8.84;70.10;98645.86;105288;1253;98108;-71
2023/03/20 08:25:32;;;;;;;52.90;27.70;;;;;;;8.82;71.16;98648.62;105088;1271;99123;-71
2023/03/20 08:28:00;;;;;;;50.40;26.90;;;;;;;8.86;72.35;98646.64;105217;1253;98679;-73
2023/03/20 08:30:27;;;;;;;36.60;22.70;;;;;;;8.90;73.33;98651.81;105056;1256;98515;-72
2023/03/20 08:32:57;;;;;;;38.20;20.70;;;;;;;8.96;72.56;98647.70;105103;1268;112305;-70
2023/03/20 08:35:24;;;;;;;40.30;21.70;;;;;;;9.02;72.14;98650.98;105204;1257;99440;-72
2023/03/20 08:38:00;;;;;;;35.70;19.70;;;;;;;9.04;71.75;98651.48;105058;1254;109918;-73
2023/03/20 08:40:28;;;;;;;27.60;15.30;;;;;;;9.03;71.59;98649.81;105169;1254;97954;-74
2023/03/20 08:42:55;;;;;;;32.20;16.80;;;;;;;8.97;71.07;98658.02;105118;1253;98596;-72
2023/03/20 08:45:24;;;;;;;56.30;31.40;;;;;;;8.90;71.45;98658.37;105201;1267;97935;-70
2023/03/20 08:47:52;;;;;;;29.80;17.40;;;;;;;8.79;71.68;98658.45;105114;1254;99066;-75
2023/03/20 08:50:19;;;;;;;38.70;20.30;;;;;;;8.72;71.62;98656.79;105084;1260;108005;-72
2023/03/20 08:52:46;;;;;;;38.10;20.80;;;;;;;8.69;71.83;98659.27;105177;1259;97887;-71
2023/03/20 08:55:15;;;;;;;39.10;20.50;;;;;;;8.77;72.54;98657.73;105291;1259;98355;-70
2023/03/20 08:57:42;;;;;;;30.60;16.40;;;;;;;8.89;72.63;98660.30;105084;1258;111244;-70
2023/03/20 09:00:13;;;;;;;35.70;18.90;;;;;;;8.91;72.17;98659.37;105123;1259;99238;-69
2023/03/20 09:02:41;;;;;;;31.50;18.90;;;;;;;8.92;72.19;98654.40;105208;1259;108691;-69
2023/03/20 09:05:09;;;;;;;30.20;18.70;;;;;;;9.00;72.51;98653.20;105255;1269;97877;-69
2023/03/20 09:07:37;;;;;;;32.90;18.70;;;;;;;9.06;72.66;98654.89;105237;1259;99365;-69
2023/03/20 09:10:04;;;;;;;33.50;18.60;;;;;;;9.16;72.75;98656.13;105150;1259;111912;-69
2023/03/20 09:12:32;;;;;;;30.90;17.60;;;;;;;9.24;72.39;98656.98;105284;1259;99005;-70
2023/03/20 09:15:00;;;;;;;30.20;18.30;;;;;;;9.34;72.80;98663.36;105259;1259;108172;-68
2023/03/20 09:17:27;;;;;;;30.70;17.60;;;;;;;9.45;73.43;98663.84;105004;1259;98047;-68
2023/03/20 09:19:54;;;;;;;32.60;17.80;;;;;;;9.51;73.73;98661.15;105211;1260;97998;-68
2023/03/20 09:22:22;;;;;;;31.70;18.40;;;;;;;9.58;74.09;98658.98;104968;1259;98034;-69
2023/03/20 09:24:49;;;;;;;29.40;17.00;;;;;;;9.69;73.40;98657.04;105088;1259;99098;-68
2023/03/20 09:27:16;;;;;;;37.20;19.70;;;;;;;9.78;72.47;98650.88;105063;1253;98039;-69
2023/03/20 09:29:43;;;;;;;30.60;17.60;;;;;;;9.87;72.80;98649.19;105030;1253;98480;-68
2023/03/20 09:32:14;;;;;;;29.80;16.20;;;;;;;10.06;72.42;98644.13;104878;1260;98453;-73
2023/03/20 09:34:41;;;;;;;31.10;17.50;;;;;;;10.25;72.11;98650.21;104843;1271;112236;-72
2023/03/20 09:37:09;;;;;;;28.30;17.00;;;;;;;10.47;72.03;98650.30;105205;1259;99258;-67
2023/03/20 09:39:36;;;;;;;34.80;19.20;;;;;;;10.71;72.47;98649.58;105161;1253;108639;-68
2023/03/20 09:42:45;;;;;;;31.80;15.70;;;;;;;10.96;72.30;98647.65;105147;1259;98036;-68
2023/03/20 09:45:44;;;;;;;28.30;16.20;;;;;;;11.16;70.61;98647.60;105184;1258;98236;-68
2023/03/20 09:48:30;;;;;;;25.40;14.10;;;;;;;11.23;70.24;98645.09;104772;1263;110214;-67
2023/03/20 09:51:11;;;;;;;24.20;14.20;;;;;;;11.26;69.80;98646.55;105174;1268;99068;-70
2023/03/20 09:53:43;;;;;;;;;;;;;;;11.27;69.91;98647.49;104927;1259;108566;-67
2023/03/20 09:56:19;;;;;;;27.80;17.50;;;;;;;11.32;70.03;98652.00;105048;1264;97996;-67
2023/03/20 09:58:57;;;;;;;28.80;17.30;;;;;;;11.39;70.24;98650.79;104958;1262;100528;-67
2023/03/20 10:01:56;;;;;;;32.20;18.10;;;;;;;11.42;69.99;98653.45;105224;1253;112236;-67
2023/03/20 10:04:28;;;;;;;26.30;16.30;;;;;;;11.46;70.10;98653.05;105008;1261;98395;-67
2023/03/20 10:06:56;;;;;;;25.60;15.20;;;;;;;11.46;69.99;98651.41;104990;1258;110546;-67
2023/03/20 10:09:26;;;;;;;31.80;17.20;;;;;;;11.48;70.10;98654.77;105271;1259;98201;-67
2023/03/20 10:12:12;;;;;;;29.50;17.00;;;;;;;11.47;70.08;98651.13;104837;1268;97971;-67
2023/03/20 10:15:02;;;;;;;31.40;18.20;;;;;;;11.42;69.28;98652.73;104983;1259;112711;-67
2023/03/20 10:18:10;;;;;;;32.30;18.80;;;;;;;11.39;69.93;98650.94;105146;1259;99326;-66
2023/03/20 10:21:12;;;;;;;35.60;21.00;;;;;;;11.34;70.20;98652.97;105069;1260;108725;-66
2023/03/20 10:24:03;;;;;;;33.50;20.40;;;;;;;11.24;70.19;98650.29;104895;1260;98168;-69
2023/03/20 10:26:34;;;;;;;35.70;19.90;;;;;;;11.13;70.92;98652.00;105158;1259;97938;-68
2023/03/20 10:29:20;;;;;;;35.60;19.40;;;;;;;11.11;70.90;98652.02;104994;1264;110932;-68
2023/03/20 10:31:54;;;;;;;34.50;19.20;;;;;;;11.10;70.54;98649.02;105125;1259;99268;-68
2023/03/20 10:34:54;;;;;;;36.10;20.20;;;;;;;11.09;70.65;98645.34;105043;1257;108463;-68
2023/03/20 10:37:48;;;;;;;29.30;18.40;;;;;;;11.12;70.92;98640.33;104488;1266;98118;-68
2023/03/20 10:40:31;;;;;;;29.90;18.10;;;;;;;11.14;70.74;98641.23;104500;1266;99796;-68
2023/03/20 10:43:20;;;;;;;26.00;16.80;;;;;;;11.23;71.32;98640.71;104376;1269;111807;-69
2023/03/20 10:45:52;;;;;;;28.60;16.70;;;;;;;11.37;70.39;98636.04;104492;1265;99193;-70
2023/03/20 10:48:43;;;;;;;34.20;19.20;;;;;;;11.53;70.00;98631.66;104337;1264;107629;-69
2023/03/20 10:51:15;;;;;;;24.80;15.20;;;;;;;11.67;68.83;98628.39;104491;1265;97933;-70
2023/03/20 10:53:46;;;;;;;24.20;14.70;;;;;;;11.70;68.04;98630.84;104546;1271;97995;-72
2023/03/20 10:56:15;;;;;;;;;;;;;;;11.80;69.61;98628.33;104437;1265;111915;-75
2023/03/20 10:58:47;;;;;;;26.00;15.60;;;;;;;11.94;69.68;98625.52;104584;1266;99084;-69
2023/03/20 11:01:20;;;;;;;25.50;15.60;;;;;;;12.12;69.79;98618.50;104433;1267;107715;-69
2023/03/20 11:03:56;;;;;;;32.40;20.60;;;;;;;12.66;68.65;98613.11;104537;1266;98108;-70
2023/03/20 11:07:06;;;;;;;21.30;13.10;;;;;;;13.35;68.68;98612.15;104575;1265;98077;-71
2023/03/20 11:09:44;;;;;;;18.40;12.90;;;;;;;14.06;67.04;98612.80;104609;1263;112067;-70
2023/03/20 11:12:19;;;;;;;16.20;10.70;;;;;;;14.47;66.21;98612.04;104537;1265;99412;-70
2023/03/20 11:14:46;;;;;;;20.80;12.90;;;;;;;14.93;67.16;98611.60;104679;1272;108289;-68
2023/03/20 11:17:13;;;;;;;17.60;11.50;;;;;;;15.61;65.59;98609.34;105054;1258;97909;-70
2023/03/20 11:19:41;;;;;;;16.20;10.80;;;;;;;16.07;63.53;98607.59;105109;1259;98000;-69
2023/03/20 11:22:20;;;;;;;20.30;12.80;;;;;;;16.30;62.47;98600.38;105127;1259;98057;-69
2023/03/20 11:24:54;;;;;;;18.80;12.70;;;;;;;16.28;62.23;98602.63;104972;1259;99083;-69
2023/03/20 11:27:27;;;;;;;18.40;12.60;;;;;;;16.32;62.20;98604.80;104912;1258;108750;-69
2023/03/20 11:29:55;;;;;;;23.80;12.60;;;;;;;16.41;61.49;98602.48;104861;1257;98132;-69
2023/03/20 11:32:39;;;;;;;18.80;13.10;;;;;;;16.49;61.34;98597.33;104884;1271;99583;-69
2023/03/20 11:35:30;;;;;;;17.70;13.00;;;;;;;16.64;60.29;98596.44;105104;1259;112329;-70
2023/03/20 11:38:13;;;;;;;23.80;15.10;;;;;;;16.89;60.35;98597.60;105157;1259;99464;-69